首页
METAR-TAF:

METAR-TAF

机场 :

吉隆坡国际机场

吉隆坡, 马来西亚

纬度: 02-44N, 经度: 101-42E, 海拔: 21米

当前天气观测

该预报发布于18分钟前的23:30 UTC
静风
温度 25°C
湿度 94%
气压 1009 hPa
能見度: 4000
少量云层低于100英尺
少量云层高于1700英尺, 积雨云.
轻雾

METAR: WMKK 142330Z 00000KT 4000 BR FEW000 FEW017CB 25/24 Q1009 BECMG 8000 NSW

时间: 07:48 (23:48 UTC)

预报

该预报发布于48分钟前的23:00 UTC
预报有效从15日的 00点(UTC)到 16日的 06点(UTC)
风速6节,风向南转西南
能见度10公里或以上
少量云层高于1700英尺, 积雨云.
短暂存在
从 15日的 08点(UTC)到 15日的 13点(UTC)
能見度: 2000
少量云层高于1000英尺
少量云层高于1600英尺, 积雨云.
散云层高于2800英尺
雷暴, 雨
几率 30% :
短暂存在
从 15日的 18点(UTC)到 16日的 00点(UTC)
能見度: 4000
少量云层高于500英尺
少量云层高于1600英尺, 积雨云.
轻雾

TAF: WMKK 142300Z 1500/1606 21006KT 9999 FEW017CB TEMPO 1508/1513 2000 TSRA FEW010 FEW016CB SCT028 PROB30 TEMPO 1518/1600 4000 BR FEW005 FEW016CB

超过4000个机场的气象观测和天气预报(METAR&TAF报告)。

可查询的气象台以黄色和红色小点在地图上表示。

将鼠标移到小点上方,可查看气象台名称。

然后点击查看天气观测和预报。

如需切换地图:点击带黑十字的绿色按钮放大地图;点击带横线的绿色按钮缩小地图;或者点击绿色箭头查看邻近地区的地图。


METAR-TAF: